createdAt,value
2017-08-25T00:01:16.227Z,13.53
2017-08-25T00:03:45.045Z,16.73
2017-08-25T00:06:14.258Z,17.53
2017-08-25T00:08:42.794Z,15.33
2017-08-25T00:11:11.625Z,12.30
2017-08-25T00:13:40.784Z,14.07
2017-08-25T00:16:09.227Z,14.13
2017-08-25T00:18:37.617Z,14.10
2017-08-25T00:21:06.575Z,16.07
2017-08-25T00:23:35.290Z,13.73
2017-08-25T00:26:03.680Z,12.40
2017-08-25T00:28:32.162Z,17.73
2017-08-25T00:31:00.603Z,15.30
2017-08-25T00:33:29.082Z,19.00
2017-08-25T00:35:57.934Z,24.90
2017-08-25T00:38:26.347Z,17.20
2017-08-25T00:40:54.784Z,18.10
2017-08-25T00:43:23.228Z,20.90
2017-08-25T00:45:51.629Z,18.30
2017-08-25T00:48:20.117Z,17.67
2017-08-25T00:50:48.562Z,12.67
2017-08-25T00:53:16.980Z,17.00
2017-08-25T00:55:45.485Z,17.10
2017-08-25T00:58:13.878Z,16.73
2017-08-25T01:00:43.029Z,21.80
2017-08-25T01:03:11.522Z,23.97
2017-08-25T01:05:40.456Z,18.37
2017-08-25T01:08:08.866Z,19.43
2017-08-25T01:10:37.344Z,16.10
2017-08-25T01:13:05.821Z,24.67
2017-08-25T01:15:34.639Z,18.27
2017-08-25T01:18:03.101Z,18.73
2017-08-25T01:20:31.532Z,19.73
2017-08-25T01:23:01.738Z,21.70
2017-08-25T01:25:30.755Z,24.03
2017-08-25T01:27:59.966Z,19.23
2017-08-25T01:30:28.396Z,18.67
2017-08-25T01:32:56.882Z,20.57
2017-08-25T01:35:25.309Z,19.40
2017-08-25T01:37:53.748Z,17.80
2017-08-25T01:40:22.238Z,15.67
2017-08-25T01:42:51.147Z,23.20
2017-08-25T01:45:19.575Z,21.07
2017-08-25T01:47:48.110Z,26.93
2017-08-25T01:50:16.596Z,19.90
2017-08-25T01:52:45.069Z,24.33
2017-08-25T01:55:13.599Z,22.70
2017-08-25T01:57:42.063Z,24.43
2017-08-25T02:00:10.826Z,16.40
2017-08-25T02:02:39.370Z,19.57
2017-08-25T02:05:07.823Z,33.37
2017-08-25T02:07:36.269Z,21.50
2017-08-25T02:10:04.698Z,25.63
2017-08-25T02:12:33.392Z,18.93
2017-08-25T02:15:02.319Z,24.33
2017-08-25T02:17:31.062Z,22.13
2017-08-25T02:19:59.514Z,26.07
2017-08-25T02:22:27.988Z,23.10
2017-08-25T02:24:56.780Z,24.07
2017-08-25T02:27:25.215Z,20.60
2017-08-25T02:29:53.661Z,20.80
2017-08-25T02:32:22.077Z,23.40
2017-08-25T02:34:51.220Z,21.00
2017-08-25T02:37:20.066Z,21.43
2017-08-25T02:39:49.260Z,29.13
2017-08-25T02:42:17.755Z,20.07
2017-08-25T02:44:46.221Z,22.97
2017-08-25T02:47:14.616Z,21.83
2017-08-25T02:49:43.024Z,26.60
2017-08-25T02:52:11.502Z,22.13
2017-08-25T02:54:39.948Z,18.70
2017-08-25T02:57:09.159Z,24.67
2017-08-25T02:59:37.595Z,24.80
2017-08-25T03:02:05.992Z,18.30
2017-08-25T03:04:34.415Z,21.20
2017-08-25T03:07:03.648Z,25.90
2017-08-25T03:09:32.053Z,19.93
2017-08-25T03:12:00.534Z,23.50
2017-08-25T03:14:28.928Z,26.30
2017-08-25T03:16:58.095Z,19.33
2017-08-25T03:19:26.543Z,24.87
2017-08-25T03:21:54.950Z,19.23
2017-08-25T03:24:23.401Z,18.90
2017-08-25T03:26:51.817Z,20.40
2017-08-25T03:29:20.226Z,21.13
2017-08-25T03:31:48.708Z,18.60
2017-08-25T03:34:17.108Z,22.83
2017-08-25T03:36:45.549Z,19.93
2017-08-25T03:39:15.195Z,24.27
2017-08-25T03:41:44.053Z,21.10
2017-08-25T03:44:13.283Z,31.00
2017-08-25T03:46:41.701Z,28.07
2017-08-25T03:49:10.099Z,30.73
2017-08-25T03:51:38.542Z,28.47
2017-08-25T03:54:06.918Z,18.97
2017-08-25T03:56:35.334Z,20.40
2017-08-25T03:59:03.814Z,24.07
2017-08-25T04:01:32.261Z,23.20
2017-08-25T04:04:00.724Z,22.40
2017-08-25T04:06:29.151Z,25.10
2017-08-25T04:08:57.603Z,23.87
2017-08-25T04:11:26.029Z,28.73
2017-08-25T04:13:54.893Z,26.83
2017-08-25T04:16:23.414Z,35.60
2017-08-25T04:18:51.829Z,33.00
2017-08-25T04:21:20.234Z,29.47
2017-08-25T04:23:49.034Z,23.10
2017-08-25T04:26:17.524Z,26.43
2017-08-25T04:28:45.964Z,27.50
2017-08-25T04:31:14.477Z,29.70
2017-08-25T04:33:42.924Z,29.37
2017-08-25T04:36:11.320Z,25.80
2017-08-25T04:38:39.828Z,24.53
2017-08-25T04:41:08.230Z,27.23
2017-08-25T04:43:36.659Z,33.80
2017-08-25T04:46:05.566Z,29.43
2017-08-25T04:48:34.459Z,28.67
2017-08-25T04:51:03.442Z,23.67
2017-08-25T04:53:31.949Z,24.43
2017-08-25T04:56:00.386Z,29.77
2017-08-25T04:58:28.852Z,26.00
2017-08-25T05:00:57.267Z,26.90
2017-08-25T05:03:25.819Z,25.40
2017-08-25T05:05:54.254Z,34.43
2017-08-25T05:08:23.428Z,23.30
2017-08-25T05:10:53.130Z,30.63
2017-08-25T05:13:21.578Z,31.20
2017-08-25T05:15:50.799Z,22.63
2017-08-25T05:18:19.950Z,27.37
2017-08-25T05:20:48.414Z,24.53
2017-08-25T05:23:17.200Z,25.60
2017-08-25T05:25:45.735Z,26.83
2017-08-25T05:28:14.173Z,23.90
2017-08-25T05:30:42.666Z,27.90
2017-08-25T05:33:11.129Z,24.97
2017-08-25T05:35:39.626Z,23.97
2017-08-25T05:38:08.484Z,25.60
2017-08-25T05:40:36.880Z,27.73
2017-08-25T05:43:06.366Z,27.23
2017-08-25T05:45:34.898Z,28.17
2017-08-25T05:48:03.851Z,28.03
2017-08-25T05:50:33.283Z,28.30
2017-08-25T05:53:01.682Z,31.50
2017-08-25T05:55:30.226Z,24.60
2017-08-25T05:57:59.714Z,29.93
2017-08-25T06:00:28.637Z,23.13
2017-08-25T06:02:57.502Z,24.10
2017-08-25T06:05:26.034Z,23.43
2017-08-25T06:07:54.427Z,29.90
2017-08-25T06:10:22.890Z,23.17
2017-08-25T06:12:52.569Z,27.30
2017-08-25T06:15:21.244Z,20.73
2017-08-25T06:17:49.649Z,19.80
2017-08-25T06:20:18.099Z,25.10
2017-08-25T06:22:47.092Z,23.33
2017-08-25T06:25:15.934Z,25.80
2017-08-25T06:27:44.417Z,23.87
2017-08-25T06:30:13.512Z,24.73
2017-08-25T06:32:41.956Z,21.83
2017-08-25T06:35:10.780Z,26.73
2017-08-25T06:37:39.261Z,17.80
2017-08-25T06:40:07.742Z,19.27
2017-08-25T06:42:36.218Z,19.90
2017-08-25T06:45:05.027Z,22.23
2017-08-25T06:47:33.477Z,23.03
2017-08-25T06:50:02.798Z,18.20
2017-08-25T06:52:31.970Z,25.57
2017-08-25T06:55:02.117Z,22.53
2017-08-25T06:57:31.071Z,23.60
2017-08-25T06:59:59.853Z,27.00
2017-08-25T07:02:28.381Z,24.47
2017-08-25T07:04:56.894Z,18.97
2017-08-25T07:07:26.174Z,18.93
2017-08-25T07:09:55.692Z,27.87
2017-08-25T07:12:25.575Z,24.43
2017-08-25T07:14:54.108Z,25.20
2017-08-25T07:17:22.572Z,23.13
2017-08-25T07:19:51.865Z,19.13
2017-08-25T07:22:20.804Z,25.70
2017-08-25T07:24:49.350Z,21.90
2017-08-25T07:27:18.659Z,19.90
2017-08-25T07:29:47.140Z,17.50
2017-08-25T07:32:16.888Z,26.97
2017-08-25T07:34:45.972Z,24.00
2017-08-25T07:37:14.686Z,19.00
2017-08-25T07:39:43.924Z,21.77
2017-08-25T07:42:12.374Z,16.37
2017-08-25T07:44:41.147Z,18.57
2017-08-25T07:47:10.151Z,23.47
2017-08-25T07:49:40.175Z,17.20
2017-08-25T07:52:08.755Z,18.73
2017-08-25T07:54:37.224Z,20.87
2017-08-25T07:57:06.095Z,19.60
2017-08-25T07:59:34.908Z,25.73
2017-08-25T08:02:03.327Z,24.70
2017-08-25T08:04:31.809Z,21.57
2017-08-25T08:07:00.654Z,20.40
2017-08-25T08:09:30.449Z,16.73
2017-08-25T08:11:58.963Z,19.27
2017-08-25T08:14:27.917Z,19.10
2017-08-25T08:16:56.907Z,22.03
2017-08-25T08:19:25.360Z,19.67
2017-08-25T08:21:53.785Z,26.10
2017-08-25T08:24:22.390Z,15.07
2017-08-25T08:26:50.809Z,16.80
2017-08-25T08:29:21.093Z,16.90
2017-08-25T08:31:49.566Z,19.00
2017-08-25T08:34:19.095Z,11.53
2017-08-25T08:36:48.034Z,14.03
2017-08-25T08:39:16.492Z,14.60
2017-08-25T08:41:48.925Z,18.53
2017-08-25T08:44:20.880Z,20.70
2017-08-25T08:46:49.461Z,20.47
2017-08-25T08:49:17.880Z,27.00
2017-08-25T08:51:46.318Z,21.30
2017-08-25T08:54:16.542Z,14.93
2017-08-25T08:56:45.432Z,13.57
2017-08-25T08:59:14.468Z,19.60
2017-08-25T09:01:43.369Z,16.40
2017-08-25T09:04:11.782Z,16.03
2017-08-25T09:06:41.471Z,13.73
2017-08-25T09:09:11.646Z,20.73
2017-08-25T09:11:40.979Z,15.90
2017-08-25T09:14:10.070Z,13.60
2017-08-25T09:16:46.235Z,12.33
2017-08-25T09:19:16.613Z,12.60
2017-08-25T09:21:46.731Z,12.10
2017-08-25T09:24:15.621Z,14.30
2017-08-25T09:26:45.989Z,15.67
2017-08-25T09:29:14.478Z,11.00
2017-08-25T09:31:43.279Z,14.20
2017-08-25T09:34:12.573Z,15.80
2017-08-25T09:36:41.064Z,13.70
2017-08-25T09:39:09.507Z,13.57
2017-08-25T09:41:37.965Z,15.73
2017-08-25T09:44:07.317Z,13.20
2017-08-25T09:46:36.265Z,13.63
2017-08-25T09:49:04.746Z,9.63
2017-08-25T09:51:34.030Z,9.17
2017-08-25T09:54:04.249Z,12.40
2017-08-25T09:56:32.820Z,16.37
2017-08-25T09:59:03.577Z,12.70
2017-08-25T10:01:32.924Z,9.10
2017-08-25T10:04:01.757Z,13.90
2017-08-25T10:06:31.007Z,11.53
2017-08-25T10:09:00.099Z,12.90
2017-08-25T10:11:28.587Z,10.40
2017-08-25T10:13:57.076Z,13.60
2017-08-25T10:16:26.505Z,14.83
2017-08-25T10:18:55.293Z,8.83
2017-08-25T10:21:23.811Z,8.17
2017-08-25T10:23:53.074Z,13.77
2017-08-25T10:26:22.738Z,16.07
2017-08-25T10:28:52.824Z,13.63
2017-08-25T10:31:21.249Z,16.07
2017-08-25T10:33:50.301Z,9.67
2017-08-25T10:36:31.281Z,9.17
2017-08-25T10:39:11.395Z,7.90
2017-08-25T10:41:52.090Z,10.87
2017-08-25T10:44:32.719Z,19.83
2017-08-25T10:47:02.081Z,10.77
2017-08-25T10:49:32.530Z,7.90
2017-08-25T10:52:01.520Z,7.53
2017-08-25T10:54:30.944Z,7.83
2017-08-25T10:56:59.493Z,4.50
2017-08-25T10:59:27.976Z,11.00
2017-08-25T11:01:57.094Z,10.57
2017-08-25T11:04:25.933Z,12.67
2017-08-25T11:06:56.098Z,14.33
2017-08-25T11:09:26.089Z,8.60
2017-08-25T11:11:55.431Z,9.00
2017-08-25T11:14:24.199Z,14.33
2017-08-25T11:16:53.690Z,8.63
2017-08-25T11:19:23.233Z,8.60
2017-08-25T11:21:52.218Z,6.57
2017-08-25T11:24:21.381Z,4.80
2017-08-25T11:26:56.169Z,7.50
2017-08-25T11:29:24.723Z,9.97
2017-08-25T11:31:53.216Z,12.50
2017-08-25T11:34:22.110Z,12.70
2017-08-25T11:36:51.305Z,12.90
2017-08-25T11:39:20.550Z,18.63
2017-08-25T11:41:51.865Z,8.80
2017-08-25T11:44:22.036Z,9.87
2017-08-25T11:46:50.605Z,7.13
2017-08-25T11:49:19.036Z,14.17
2017-08-25T11:51:48.117Z,8.07
2017-08-25T11:54:17.523Z,9.93
2017-08-25T11:56:45.937Z,10.80
2017-08-25T11:59:14.491Z,13.93
2017-08-25T12:01:43.056Z,7.63
2017-08-25T12:04:12.643Z,6.53
2017-08-25T12:06:41.832Z,13.23
2017-08-25T12:09:10.263Z,10.10
2017-08-25T12:11:39.503Z,5.63
2017-08-25T12:14:09.072Z,7.40
2017-08-25T12:16:37.656Z,11.20
2017-08-25T12:19:06.101Z,6.77
2017-08-25T12:21:34.630Z,7.50
2017-08-25T12:24:04.298Z,9.67
2017-08-25T12:26:34.128Z,10.23
2017-08-25T12:29:06.319Z,8.57
2017-08-25T12:31:34.781Z,9.87
2017-08-25T12:34:03.273Z,6.37
2017-08-25T12:36:31.829Z,8.93
2017-08-25T12:39:01.292Z,7.97
2017-08-25T12:41:30.138Z,10.30
2017-08-25T12:44:00.356Z,9.30
2017-08-25T12:46:28.925Z,6.30
2017-08-25T12:48:58.238Z,8.20
2017-08-25T12:51:27.508Z,7.97
2017-08-25T12:53:55.975Z,14.37
2017-08-25T12:56:24.409Z,11.50
2017-08-25T12:58:54.646Z,9.00
2017-08-25T13:01:23.116Z,7.23
2017-08-25T13:03:52.282Z,11.43
2017-08-25T13:06:22.642Z,8.77
2017-08-25T13:08:53.040Z,9.20
2017-08-25T13:11:21.436Z,6.90
2017-08-25T13:13:49.962Z,8.97
2017-08-25T13:16:22.479Z,10.50
2017-08-25T13:18:51.764Z,11.67
2017-08-25T13:21:21.272Z,7.63
2017-08-25T13:23:50.533Z,9.50
2017-08-25T13:26:19.361Z,7.90
2017-08-25T13:28:48.372Z,18.13
2017-08-25T13:31:18.320Z,6.20
2017-08-25T13:33:47.418Z,8.50
2017-08-25T13:36:15.897Z,9.40
2017-08-25T13:38:44.428Z,7.10
2017-08-25T13:41:13.837Z,11.43
2017-08-25T13:43:43.476Z,6.00
2017-08-25T13:46:11.970Z,7.07
2017-08-25T13:48:42.197Z,7.00
2017-08-25T13:51:12.395Z,4.40
2017-08-25T13:53:42.465Z,4.13
2017-08-25T13:56:11.707Z,3.97
2017-08-25T13:58:40.291Z,9.97
2017-08-25T14:01:10.142Z,4.87
2017-08-25T14:03:39.498Z,8.30
2017-08-25T14:06:08.435Z,5.07
2017-08-25T14:08:38.294Z,8.40
2017-08-25T14:11:08.126Z,8.20
2017-08-25T14:13:37.502Z,5.30
2017-08-25T14:16:06.370Z,3.53
2017-08-25T14:18:34.811Z,10.10
2017-08-25T14:21:04.085Z,10.63
2017-08-25T14:23:33.308Z,5.37
2017-08-25T14:26:01.812Z,14.03
2017-08-25T14:28:31.009Z,7.67
2017-08-25T14:31:00.502Z,7.23
2017-08-25T14:33:29.364Z,9.90
2017-08-25T14:35:58.896Z,9.80
2017-08-25T14:38:29.565Z,7.53
2017-08-25T14:40:58.123Z,4.77
2017-08-25T14:43:27.788Z,4.97
2017-08-25T14:46:00.761Z,5.07
2017-08-25T14:48:29.383Z,6.53
2017-08-25T14:50:58.605Z,9.70
2017-08-25T14:53:28.762Z,6.87
2017-08-25T14:55:57.851Z,5.80
2017-08-25T14:58:27.069Z,7.17
2017-08-25T15:00:55.931Z,7.40
2017-08-25T15:03:27.450Z,6.03
2017-08-25T15:05:56.831Z,8.60
2017-08-25T15:08:28.462Z,13.17
2017-08-25T15:10:57.428Z,15.50
2017-08-25T15:13:26.362Z,8.60
2017-08-25T15:15:54.896Z,9.37
2017-08-25T15:18:24.237Z,8.10
2017-08-25T15:20:52.663Z,7.37
2017-08-25T15:23:22.894Z,10.53
2017-08-25T15:25:55.325Z,5.40
2017-08-25T15:28:23.761Z,7.53
2017-08-25T15:30:52.716Z,8.03
2017-08-25T15:33:21.737Z,10.53
2017-08-25T15:35:50.157Z,7.67
2017-08-25T15:38:18.663Z,7.20
2017-08-25T15:40:47.089Z,5.23
2017-08-25T15:43:15.547Z,10.63
2017-08-25T15:45:44.775Z,9.80
2017-08-25T15:48:14.606Z,8.50
2017-08-25T15:50:44.034Z,11.43
2017-08-25T15:53:12.605Z,10.70
2017-08-25T15:55:41.080Z,7.00
2017-08-25T15:58:09.606Z,6.70
2017-08-25T16:00:38.067Z,8.80
2017-08-25T16:03:06.537Z,10.47
2017-08-25T16:05:35.383Z,11.27
2017-08-25T16:08:05.023Z,6.63
2017-08-25T16:10:33.487Z,6.80
2017-08-25T16:13:02.001Z,7.00
2017-08-25T16:15:30.814Z,11.30
2017-08-25T16:17:59.958Z,8.83
2017-08-25T16:20:28.682Z,18.27
2017-08-25T16:22:57.486Z,5.40
2017-08-25T16:25:26.621Z,10.30
2017-08-25T16:27:57.085Z,8.90
2017-08-25T16:30:26.462Z,7.67
2017-08-25T16:32:55.026Z,8.20
2017-08-25T16:35:23.874Z,8.37
2017-08-25T16:37:53.158Z,7.53
2017-08-25T16:40:22.195Z,9.03
2017-08-25T16:42:54.157Z,14.10
2017-08-25T16:45:23.005Z,9.47
2017-08-25T16:47:52.039Z,6.90
2017-08-25T16:50:20.458Z,8.73
2017-08-25T16:52:49.961Z,14.07
2017-08-25T16:55:18.812Z,9.03
2017-08-25T16:57:47.193Z,7.73
2017-08-25T17:00:15.596Z,9.27
2017-08-25T17:02:45.813Z,11.77
2017-08-25T17:05:15.002Z,18.10
2017-08-25T17:07:43.527Z,9.70
2017-08-25T17:10:12.599Z,13.50
2017-08-25T17:12:41.026Z,15.20
2017-08-25T17:15:09.517Z,20.83
2017-08-25T17:17:37.939Z,8.10
2017-08-25T17:20:06.569Z,12.43
2017-08-25T17:22:35.048Z,10.67
2017-08-25T17:25:03.564Z,13.97
2017-08-25T17:27:32.199Z,14.40
2017-08-25T17:30:00.690Z,30.30
2017-08-25T17:32:29.212Z,15.17
2017-08-25T17:34:57.591Z,15.40
2017-08-25T17:37:25.999Z,19.27
2017-08-25T17:39:54.476Z,24.47
2017-08-25T17:42:22.922Z,15.60
2017-08-25T17:44:51.346Z,30.03
2017-08-25T17:47:19.818Z,18.13
2017-08-25T17:49:48.693Z,16.93
2017-08-25T17:52:17.153Z,22.87
2017-08-25T17:54:45.698Z,21.63
2017-08-25T17:57:14.141Z,27.10
2017-08-25T17:59:42.606Z,26.97
2017-08-25T18:02:11.469Z,28.30
2017-08-25T18:04:40.159Z,21.80
2017-08-25T18:07:09.040Z,23.67
2017-08-25T18:09:37.504Z,23.77
2017-08-25T18:12:06.013Z,20.20
2017-08-25T18:14:35.007Z,27.90
2017-08-25T18:17:04.294Z,27.23
2017-08-25T18:19:32.686Z,32.80
2017-08-25T18:22:01.132Z,28.17
2017-08-25T18:24:29.557Z,28.90
2017-08-25T18:26:58.458Z,28.13
2017-08-25T18:29:26.971Z,27.63
2017-08-25T18:31:56.054Z,21.67
2017-08-25T18:34:24.501Z,21.30
2017-08-25T18:39:26.362Z,22.23
2017-08-25T18:41:54.790Z,27.50
2017-08-25T18:44:23.216Z,26.53
2017-08-25T18:46:52.912Z,26.03
2017-08-25T18:49:21.351Z,29.43
2017-08-25T18:51:49.772Z,35.20
2017-08-25T18:54:18.272Z,30.53
2017-08-25T18:56:47.480Z,38.97
2017-08-25T18:59:16.001Z,30.43
2017-08-25T19:01:44.835Z,31.90
2017-08-25T19:04:13.261Z,44.87
2017-08-25T19:06:41.733Z,32.60
2017-08-25T19:09:10.180Z,40.83
2017-08-25T19:11:39.518Z,34.50
2017-08-25T19:14:08.948Z,30.70
2017-08-25T19:16:37.360Z,38.20
2017-08-25T19:19:05.962Z,29.20
2017-08-25T19:21:35.185Z,38.13
2017-08-25T19:24:04.649Z,32.63
2017-08-25T19:26:33.969Z,52.40
2017-08-25T19:29:02.706Z,29.47
2017-08-25T19:31:31.136Z,29.30
2017-08-25T19:34:00.746Z,32.63
2017-08-25T19:36:29.994Z,30.70
2017-08-25T19:38:59.339Z,35.80
2017-08-25T19:41:27.746Z,38.90
2017-08-25T19:43:57.455Z,37.63
2017-08-25T19:46:25.851Z,32.53
2017-08-25T19:48:54.716Z,45.90
2017-08-25T19:51:23.288Z,40.27
2017-08-25T19:53:52.663Z,50.33
2017-08-25T19:56:21.528Z,35.43
2017-08-25T19:58:49.987Z,41.10
2017-08-25T20:01:18.449Z,35.17
2017-08-25T20:03:46.953Z,33.07
2017-08-25T20:06:15.713Z,37.40
2017-08-25T20:08:44.571Z,37.23
2017-08-25T20:11:13.067Z,37.33
2017-08-25T20:13:41.955Z,41.97
2017-08-25T20:16:10.715Z,49.83
2017-08-25T20:18:39.169Z,41.73
2017-08-25T20:21:07.619Z,41.40
2017-08-25T20:23:36.790Z,44.40
2017-08-25T20:26:05.365Z,40.30
2017-08-25T20:28:33.849Z,37.73
2017-08-25T20:31:02.659Z,40.63
2017-08-25T20:33:31.945Z,45.60
2017-08-25T20:36:01.588Z,40.53
2017-08-25T20:38:30.079Z,38.00
2017-08-25T20:40:58.513Z,48.07
2017-08-25T20:43:26.951Z,39.27
2017-08-25T20:45:57.221Z,45.07
2017-08-25T20:48:25.645Z,38.83
2017-08-25T20:50:54.137Z,37.73
2017-08-25T20:53:22.543Z,30.37
2017-08-25T20:55:51.027Z,29.50
2017-08-25T20:58:19.899Z,31.20
2017-08-25T21:00:48.654Z,34.57
2017-08-25T21:03:17.102Z,32.13
2017-08-25T21:05:45.561Z,30.13
2017-08-25T21:08:15.332Z,34.20
2017-08-25T21:10:43.757Z,32.63
2017-08-25T21:13:12.182Z,33.53
2017-08-25T21:15:41.347Z,39.00
2017-08-25T21:18:09.814Z,42.23
2017-08-25T21:20:38.696Z,35.90
2017-08-25T21:23:07.074Z,35.73
2017-08-25T21:25:36.683Z,36.77
2017-08-25T21:28:05.655Z,40.93
2017-08-25T21:30:34.125Z,41.00
2017-08-25T21:33:02.606Z,44.57
2017-08-25T21:35:31.081Z,44.43
2017-08-25T21:37:59.497Z,54.70
2017-08-25T21:40:27.890Z,49.57
2017-08-25T21:42:56.717Z,43.37
2017-08-25T21:45:25.133Z,42.67
2017-08-25T21:47:53.781Z,46.47
2017-08-25T21:50:22.282Z,45.37
2017-08-25T21:52:51.022Z,40.33
2017-08-25T21:55:20.239Z,44.07
2017-08-25T21:57:48.708Z,46.03
2017-08-25T22:00:17.593Z,50.17
2017-08-25T22:02:46.795Z,50.43
2017-08-25T22:05:15.746Z,43.97
2017-08-25T22:07:44.262Z,42.70
2017-08-25T22:10:12.717Z,50.77
2017-08-25T22:12:41.092Z,53.43
2017-08-25T22:15:10.300Z,45.60
2017-08-25T22:17:39.096Z,43.07
2017-08-25T22:20:08.481Z,48.07
2017-08-25T22:22:36.900Z,61.77
2017-08-25T22:25:05.306Z,56.10
2017-08-25T22:27:34.240Z,58.27
2017-08-25T22:30:03.070Z,43.10
2017-08-25T22:32:31.977Z,56.43
2017-08-25T22:35:00.383Z,49.77
2017-08-25T22:37:28.778Z,53.33
2017-08-25T22:39:57.613Z,52.53
2017-08-25T22:42:26.019Z,41.70
2017-08-25T22:44:54.419Z,52.30
2017-08-25T22:47:22.889Z,60.37
2017-08-25T22:49:51.327Z,56.07
2017-08-25T22:52:20.090Z,51.67
2017-08-25T22:54:48.460Z,59.33
2017-08-25T22:57:16.952Z,58.07
2017-08-25T22:59:46.306Z,55.70
2017-08-25T23:02:15.050Z,57.77
2017-08-25T23:04:43.501Z,50.17
2017-08-25T23:07:12.330Z,60.57
2017-08-25T23:09:40.740Z,65.83
2017-08-25T23:12:09.167Z,66.10
2017-08-25T23:14:37.997Z,73.27
2017-08-25T23:17:06.443Z,62.33
2017-08-25T23:19:34.843Z,59.43
2017-08-25T23:22:04.012Z,63.03
2017-08-25T23:24:32.496Z,59.20
2017-08-25T23:27:00.873Z,61.03
2017-08-25T23:29:30.093Z,59.97
2017-08-25T23:31:58.502Z,54.47
2017-08-25T23:34:26.961Z,50.20
2017-08-25T23:36:56.134Z,55.00
2017-08-25T23:39:24.868Z,59.50
2017-08-25T23:41:53.314Z,55.27
2017-08-25T23:44:21.743Z,54.17
2017-08-25T23:46:50.166Z,53.97
2017-08-25T23:49:18.590Z,51.20
2017-08-25T23:51:47.017Z,58.60
2017-08-25T23:54:16.250Z,47.40
2017-08-25T23:56:45.511Z,42.53
2017-08-25T23:59:15.116Z,35.07
